sensor_id;sensor_type;location;lat;lon;timestamp;pressure;altitude;pressure_sealevel;temperature;humidity
63700;BME280;49845;47.130;142.766;2023-05-14T00:01:44;100419.66;;;18.54;31.17
63700;BME280;49845;47.130;142.766;2023-05-14T00:04:15;100415.72;;;18.63;30.85
63700;BME280;49845;47.130;142.766;2023-05-14T00:06:47;100404.44;;;18.78;31.44
63700;BME280;49845;47.130;142.766;2023-05-14T00:09:18;100419.53;;;18.76;31.34
63700;BME280;49845;47.130;142.766;2023-05-14T00:11:49;100418.63;;;18.77;31.06
63700;BME280;49845;47.130;142.766;2023-05-14T00:14:19;100404.28;;;18.81;31.37
63700;BME280;49845;47.130;142.766;2023-05-14T00:16:51;100409.78;;;18.95;31.39
63700;BME280;49845;47.130;142.766;2023-05-14T00:19:22;100416.81;;;19.14;31.60
63700;BME280;49845;47.130;142.766;2023-05-14T00:21:53;100406.53;;;19.25;31.64
63700;BME280;49845;47.130;142.766;2023-05-14T00:24:23;100403.91;;;19.25;31.06
63700;BME280;49845;47.130;142.766;2023-05-14T00:26:54;100401.72;;;19.33;31.18
63700;BME280;49845;47.130;142.766;2023-05-14T00:29:25;100400.53;;;19.39;31.02
63700;BME280;49845;47.130;142.766;2023-05-14T00:31:57;100400.13;;;19.64;31.44
63700;BME280;49845;47.130;142.766;2023-05-14T00:34:28;100396.09;;;19.74;31.74
63700;BME280;49845;47.130;142.766;2023-05-14T00:36:58;100391.25;;;19.82;31.48
63700;BME280;49845;47.130;142.766;2023-05-14T00:39:29;100396.47;;;19.84;31.67
63700;BME280;49845;47.130;142.766;2023-05-14T00:42:00;100380.50;;;19.86;31.58
63700;BME280;49845;47.130;142.766;2023-05-14T00:44:30;100375.97;;;19.88;31.91
63700;BME280;49845;47.130;142.766;2023-05-14T00:47:03;100375.63;;;19.94;32.28
63700;BME280;49845;47.130;142.766;2023-05-14T00:49:36;100375.63;;;19.94;31.28
63700;BME280;49845;47.130;142.766;2023-05-14T00:52:07;100370.97;;;19.81;31.15
63700;BME280;49845;47.130;142.766;2023-05-14T00:54:38;100345.75;;;19.57;31.83
63700;BME280;49845;47.130;142.766;2023-05-14T00:57:08;100380.81;;;19.62;31.60
63700;BME280;49845;47.130;142.766;2023-05-14T00:59:40;100377.22;;;19.63;32.00
63700;BME280;49845;47.130;142.766;2023-05-14T01:02:12;100380.81;;;19.62;32.17
63700;BME280;49845;47.130;142.766;2023-05-14T01:04:43;100373.34;;;19.70;31.83
63700;BME280;49845;47.130;142.766;2023-05-14T01:07:22;100375.22;;;19.68;31.91
63700;BME280;49845;47.130;142.766;2023-05-14T01:10:05;100389.00;;;19.57;32.25
63700;BME280;49845;47.130;142.766;2023-05-14T01:12:41;100383.00;;;19.54;32.58
63700;BME280;49845;47.130;142.766;2023-05-14T01:15:27;100372.88;;;19.62;32.51
63700;BME280;49845;47.130;142.766;2023-05-14T01:18:02;100361.66;;;19.57;33.25
63700;BME280;49845;47.130;142.766;2023-05-14T01:20:34;100356.31;;;19.74;33.32
63700;BME280;49845;47.130;142.766;2023-05-14T01:23:06;100358.00;;;19.93;32.40
63700;BME280;49845;47.130;142.766;2023-05-14T01:25:37;100351.88;;;20.08;33.08
63700;BME280;49845;47.130;142.766;2023-05-14T01:28:14;100349.50;;;20.19;32.69
63700;BME280;49845;47.130;142.766;2023-05-14T01:30:51;100352.75;;;20.40;32.52
63700;BME280;49845;47.130;142.766;2023-05-14T01:33:24;100355.16;;;20.45;32.54
63700;BME280;49845;47.130;142.766;2023-05-14T01:35:57;100349.31;;;20.54;32.10
63700;BME280;49845;47.130;142.766;2023-05-14T01:38:29;100343.00;;;20.73;32.74
63700;BME280;49845;47.130;142.766;2023-05-14T01:41:02;100331.09;;;20.80;31.45
63700;BME280;49845;47.130;142.766;2023-05-14T01:43:34;100320.59;;;20.62;31.02
63700;BME280;49845;47.130;142.766;2023-05-14T01:46:05;100337.88;;;20.70;31.42
63700;BME280;49845;47.130;142.766;2023-05-14T01:48:36;100332.72;;;20.66;31.73
63700;BME280;49845;47.130;142.766;2023-05-14T01:51:08;100309.97;;;20.62;31.54
63700;BME280;49845;47.130;142.766;2023-05-14T01:53:43;100329.84;;;20.55;31.88
63700;BME280;49845;47.130;142.766;2023-05-14T01:56:14;100336.03;;;20.54;31.89
63700;BME280;49845;47.130;142.766;2023-05-14T01:58:45;100327.78;;;20.60;32.05
63700;BME280;49845;47.130;142.766;2023-05-14T02:01:15;100337.28;;;20.64;31.46
63700;BME280;49845;47.130;142.766;2023-05-14T02:03:46;100335.75;;;20.60;31.59
63700;BME280;49845;47.130;142.766;2023-05-14T02:06:17;100323.13;;;20.48;31.97
63700;BME280;49845;47.130;142.766;2023-05-14T02:09:07;100330.13;;;20.49;32.70
63700;BME280;49845;47.130;142.766;2023-05-14T02:11:38;100318.19;;;20.42;32.08
63700;BME280;49845;47.130;142.766;2023-05-14T02:14:08;100323.63;;;20.39;31.64
63700;BME280;49845;47.130;142.766;2023-05-14T02:16:39;100321.81;;;20.57;31.69
63700;BME280;49845;47.130;142.766;2023-05-14T02:19:10;100310.03;;;20.77;31.59
63700;BME280;49845;47.130;142.766;2023-05-14T02:21:41;100320.50;;;20.94;32.08
63700;BME280;49845;47.130;142.766;2023-05-14T02:24:15;100305.44;;;20.95;32.08
63700;BME280;49845;47.130;142.766;2023-05-14T02:26:46;100295.75;;;20.94;32.11
63700;BME280;49845;47.130;142.766;2023-05-14T02:29:17;100314.47;;;21.06;32.39
63700;BME280;49845;47.130;142.766;2023-05-14T02:31:47;100311.66;;;21.24;31.61
63700;BME280;49845;47.130;142.766;2023-05-14T02:34:18;100302.56;;;21.28;31.89
63700;BME280;49845;47.130;142.766;2023-05-14T02:36:49;100309.56;;;21.45;32.39
63700;BME280;49845;47.130;142.766;2023-05-14T02:39:21;100299.38;;;21.51;31.89
63700;BME280;49845;47.130;142.766;2023-05-14T02:41:53;100298.63;;;21.64;31.88
63700;BME280;49845;47.130;142.766;2023-05-14T02:44:24;100275.25;;;21.69;31.13
63700;BME280;49845;47.130;142.766;2023-05-14T02:46:54;100296.16;;;21.61;31.45
63700;BME280;49845;47.130;142.766;2023-05-14T02:49:25;100285.91;;;21.69;31.26
63700;BME280;49845;47.130;142.766;2023-05-14T02:51:56;100281.25;;;21.72;31.32
63700;BME280;49845;47.130;142.766;2023-05-14T02:54:30;100286.50;;;21.60;31.32
63700;BME280;49845;47.130;142.766;2023-05-14T02:57:01;100281.34;;;21.57;31.79
63700;BME280;49845;47.130;142.766;2023-05-14T02:59:32;100283.06;;;21.43;31.47
63700;BME280;49845;47.130;142.766;2023-05-14T03:02:04;100261.56;;;21.18;31.05
63700;BME280;49845;47.130;142.766;2023-05-14T03:04:35;100278.06;;;21.23;31.42
63700;BME280;49845;47.130;142.766;2023-05-14T03:07:06;100263.09;;;21.36;31.66
63700;BME280;49845;47.130;142.766;2023-05-14T03:09:38;100269.38;;;21.64;31.49
63700;BME280;49845;47.130;142.766;2023-05-14T03:12:09;100275.09;;;21.72;30.61
63700;BME280;49845;47.130;142.766;2023-05-14T03:14:40;100231.78;;;21.56;31.20
63700;BME280;49845;47.130;142.766;2023-05-14T03:17:10;100270.91;;;21.82;31.61
63700;BME280;49845;47.130;142.766;2023-05-14T03:19:41;100264.75;;;21.82;32.18
63700;BME280;49845;47.130;142.766;2023-05-14T03:22:12;100274.50;;;21.81;32.24
63700;BME280;49845;47.130;142.766;2023-05-14T03:24:45;100255.78;;;21.83;32.25
63700;BME280;49845;47.130;142.766;2023-05-14T03:27:15;100249.16;;;21.75;31.53
63700;BME280;49845;47.130;142.766;2023-05-14T03:29:46;100256.38;;;21.73;32.26
63700;BME280;49845;47.130;142.766;2023-05-14T03:32:17;100252.56;;;21.78;32.65
63700;BME280;49845;47.130;142.766;2023-05-14T03:34:49;100244.31;;;21.82;32.08
63700;BME280;49845;47.130;142.766;2023-05-14T03:37:20;100239.63;;;21.86;31.88
63700;BME280;49845;47.130;142.766;2023-05-14T03:39:52;100231.56;;;21.87;31.98
63700;BME280;49845;47.130;142.766;2023-05-14T03:42:23;100215.41;;;21.90;31.88
63700;BME280;49845;47.130;142.766;2023-05-14T03:44:54;100211.44;;;21.69;31.51
63700;BME280;49845;47.130;142.766;2023-05-14T03:47:25;100207.84;;;21.70;32.50
63700;BME280;49845;47.130;142.766;2023-05-14T03:49:56;100232.88;;;21.94;32.27
63700;BME280;49845;47.130;142.766;2023-05-14T03:52:26;100228.56;;;21.79;31.64
63700;BME280;49845;47.130;142.766;2023-05-14T03:54:58;100227.97;;;21.74;32.27
63700;BME280;49845;47.130;142.766;2023-05-14T03:57:29;100209.94;;;21.65;32.18
63700;BME280;49845;47.130;142.766;2023-05-14T03:59:59;100220.19;;;21.71;31.84
63700;BME280;49845;47.130;142.766;2023-05-14T04:02:30;100222.25;;;21.94;32.09
63700;BME280;49845;47.130;142.766;2023-05-14T04:05:01;100219.72;;;22.06;31.48
63700;BME280;49845;47.130;142.766;2023-05-14T04:07:32;100214.81;;;22.00;31.85
63700;BME280;49845;47.130;142.766;2023-05-14T04:10:04;100221.84;;;22.01;32.45
63700;BME280;49845;47.130;142.766;2023-05-14T04:12:35;100232.25;;;22.18;32.84
63700;BME280;49845;47.130;142.766;2023-05-14T04:15:07;100217.63;;;22.11;32.34
63700;BME280;49845;47.130;142.766;2023-05-14T04:17:39;100218.38;;;22.13;32.74
63700;BME280;49845;47.130;142.766;2023-05-14T04:20:11;100215.94;;;22.10;32.27
63700;BME280;49845;47.130;142.766;2023-05-14T04:22:44;100203.75;;;22.06;32.16
63700;BME280;49845;47.130;142.766;2023-05-14T04:25:18;100208.16;;;22.07;32.46
63700;BME280;49845;47.130;142.766;2023-05-14T04:27:49;100176.25;;;21.92;32.44
63700;BME280;49845;47.130;142.766;2023-05-14T04:30:19;100201.66;;;22.11;32.57
63700;BME280;49845;47.130;142.766;2023-05-14T04:32:50;100205.66;;;22.04;32.16
63700;BME280;49845;47.130;142.766;2023-05-14T04:35:21;100196.03;;;21.88;32.56
63700;BME280;49845;47.130;142.766;2023-05-14T04:37:51;100190.91;;;21.85;32.42
63700;BME280;49845;47.130;142.766;2023-05-14T04:40:23;100205.16;;;21.84;32.56
63700;BME280;49845;47.130;142.766;2023-05-14T04:42:54;100201.13;;;21.91;32.45
63700;BME280;49845;47.130;142.766;2023-05-14T04:45:25;100184.78;;;21.97;32.66
63700;BME280;49845;47.130;142.766;2023-05-14T04:47:55;100206.09;;;21.97;32.74
63700;BME280;49845;47.130;142.766;2023-05-14T04:50:26;100203.13;;;22.02;32.86
63700;BME280;49845;47.130;142.766;2023-05-14T04:52:57;100196.00;;;22.03;32.16
63700;BME280;49845;47.130;142.766;2023-05-14T04:55:29;100195.50;;;22.10;32.40
63700;BME280;49845;47.130;142.766;2023-05-14T04:58:00;100178.69;;;22.10;32.29
63700;BME280;49845;47.130;142.766;2023-05-14T05:00:31;100183.75;;;22.00;32.33
63700;BME280;49845;47.130;142.766;2023-05-14T05:03:05;100183.44;;;22.05;32.60
63700;BME280;49845;47.130;142.766;2023-05-14T05:05:36;100183.84;;;21.98;32.31
63700;BME280;49845;47.130;142.766;2023-05-14T05:08:06;100186.50;;;21.98;32.69
63700;BME280;49845;47.130;142.766;2023-05-14T05:10:40;100172.81;;;22.05;33.12
63700;BME280;49845;47.130;142.766;2023-05-14T05:13:10;100187.00;;;22.18;33.10
63700;BME280;49845;47.130;142.766;2023-05-14T05:15:41;100184.72;;;22.26;32.26
63700;BME280;49845;47.130;142.766;2023-05-14T05:18:12;100189.13;;;22.13;32.39
63700;BME280;49845;47.130;142.766;2023-05-14T05:20:42;100179.06;;;22.04;32.58
63700;BME280;49845;47.130;142.766;2023-05-14T05:23:13;100181.78;;;21.89;32.56
63700;BME280;49845;47.130;142.766;2023-05-14T05:25:45;100171.16;;;21.89;33.33
63700;BME280;49845;47.130;142.766;2023-05-14T05:28:16;100165.16;;;21.86;33.21
63700;BME280;49845;47.130;142.766;2023-05-14T05:30:46;100159.56;;;21.76;33.68
63700;BME280;49845;47.130;142.766;2023-05-14T05:33:17;100175.16;;;21.82;32.95
63700;BME280;49845;47.130;142.766;2023-05-14T05:35:47;100164.31;;;21.85;33.24
63700;BME280;49845;47.130;142.766;2023-05-14T05:38:18;100147.72;;;21.82;33.46
63700;BME280;49845;47.130;142.766;2023-05-14T05:40:50;100168.25;;;22.07;33.49
63700;BME280;49845;47.130;142.766;2023-05-14T05:43:21;100171.41;;;22.26;33.66
63700;BME280;49845;47.130;142.766;2023-05-14T05:45:51;100155.84;;;22.20;32.72
63700;BME280;49845;47.130;142.766;2023-05-14T05:48:22;100164.28;;;22.00;32.68
63700;BME280;49845;47.130;142.766;2023-05-14T05:50:52;100159.19;;;21.82;33.46
63700;BME280;49845;47.130;142.766;2023-05-14T05:53:23;100171.72;;;21.80;33.66
63700;BME280;49845;47.130;142.766;2023-05-14T05:55:56;100164.09;;;21.88;33.93
63700;BME280;49845;47.130;142.766;2023-05-14T05:58:26;100159.47;;;21.92;34.28
63700;BME280;49845;47.130;142.766;2023-05-14T06:00:57;100158.66;;;22.04;33.65
63700;BME280;49845;47.130;142.766;2023-05-14T06:03:27;100158.19;;;21.97;33.35
63700;BME280;49845;47.130;142.766;2023-05-14T06:05:58;100169.22;;;21.91;34.08
63700;BME280;49845;47.130;142.766;2023-05-14T06:08:28;100173.13;;;21.86;34.12
63700;BME280;49845;47.130;142.766;2023-05-14T06:11:00;100171.53;;;21.83;34.13
63700;BME280;49845;47.130;142.766;2023-05-14T06:13:31;100171.31;;;21.86;34.07
63700;BME280;49845;47.130;142.766;2023-05-14T06:16:01;100183.91;;;21.84;33.92
63700;BME280;49845;47.130;142.766;2023-05-14T06:18:32;100163.47;;;21.85;33.77
63700;BME280;49845;47.130;142.766;2023-05-14T06:21:03;100176.84;;;21.83;34.50
63700;BME280;49845;47.130;142.766;2023-05-14T06:23:33;100175.16;;;21.82;34.70
63700;BME280;49845;47.130;142.766;2023-05-14T06:26:15;100185.03;;;21.80;34.27
63700;BME280;49845;47.130;142.766;2023-05-14T06:28:45;100175.53;;;21.76;34.49
63700;BME280;49845;47.130;142.766;2023-05-14T06:31:16;100175.75;;;21.73;34.88
63700;BME280;49845;47.130;142.766;2023-05-14T06:33:47;100173.44;;;21.81;35.29
63700;BME280;49845;47.130;142.766;2023-05-14T06:36:17;100172.50;;;21.82;34.99
63700;BME280;49845;47.130;142.766;2023-05-14T06:38:48;100178.59;;;21.70;35.13
63700;BME280;49845;47.130;142.766;2023-05-14T06:41:20;100162.84;;;21.67;35.39
63700;BME280;49845;47.130;142.766;2023-05-14T06:43:50;100164.47;;;21.69;35.57
63700;BME280;49845;47.130;142.766;2023-05-14T06:46:21;100165.50;;;21.67;35.29
63700;BME280;49845;47.130;142.766;2023-05-14T06:48:51;100162.09;;;21.65;35.63
63700;BME280;49845;47.130;142.766;2023-05-14T06:51:25;100166.72;;;21.75;35.91
63700;BME280;49845;47.130;142.766;2023-05-14T06:53:56;100174.03;;;21.72;36.56
63700;BME280;49845;47.130;142.766;2023-05-14T06:56:28;100180.47;;;21.82;36.58
63700;BME280;49845;47.130;142.766;2023-05-14T06:58:59;100179.38;;;21.72;36.37
63700;BME280;49845;47.130;142.766;2023-05-14T07:01:29;100183.16;;;21.53;36.67
63700;BME280;49845;47.130;142.766;2023-05-14T07:04:00;100181.13;;;21.44;37.03
63700;BME280;49845;47.130;142.766;2023-05-14T07:06:30;100177.75;;;21.26;37.05
63700;BME280;49845;47.130;142.766;2023-05-14T07:09:01;100174.44;;;21.23;38.13
63700;BME280;49845;47.130;142.766;2023-05-14T07:11:33;100189.25;;;21.27;37.98
63700;BME280;49845;47.130;142.766;2023-05-14T07:14:04;100189.63;;;21.21;38.42
63700;BME280;49845;47.130;142.766;2023-05-14T07:16:35;100205.97;;;21.15;38.39
63700;BME280;49845;47.130;142.766;2023-05-14T07:19:05;100212.59;;;21.07;38.59
63700;BME280;49845;47.130;142.766;2023-05-14T07:21:36;100206.69;;;21.02;38.74
63700;BME280;49845;47.130;142.766;2023-05-14T07:24:07;100198.16;;;20.97;38.80
63700;BME280;49845;47.130;142.766;2023-05-14T07:26:39;100193.00;;;20.94;38.64
63700;BME280;49845;47.130;142.766;2023-05-14T07:29:10;100205.72;;;20.89;38.82
63700;BME280;49845;47.130;142.766;2023-05-14T07:31:40;100212.06;;;20.86;39.36
63700;BME280;49845;47.130;142.766;2023-05-14T07:34:11;100218.72;;;20.79;39.23
63700;BME280;49845;47.130;142.766;2023-05-14T07:36:41;100199.03;;;20.67;39.24
63700;BME280;49845;47.130;142.766;2023-05-14T07:39:12;100188.03;;;20.59;39.48
63700;BME280;49845;47.130;142.766;2023-05-14T07:41:44;100205.88;;;20.72;39.47
63700;BME280;49845;47.130;142.766;2023-05-14T07:44:15;100212.13;;;20.71;39.29
63700;BME280;49845;47.130;142.766;2023-05-14T07:46:46;100203.41;;;20.68;39.53
63700;BME280;49845;47.130;142.766;2023-05-14T07:49:16;100210.44;;;20.70;39.61
63700;BME280;49845;47.130;142.766;2023-05-14T07:51:47;100209.66;;;20.67;40.24
63700;BME280;49845;47.130;142.766;2023-05-14T07:54:17;100203.22;;;20.72;40.41
63700;BME280;49845;47.130;142.766;2023-05-14T07:56:49;100205.47;;;20.63;39.98
63700;BME280;49845;47.130;142.766;2023-05-14T07:59:20;100213.19;;;20.52;40.21
63700;BME280;49845;47.130;142.766;2023-05-14T08:01:51;100218.06;;;20.44;40.29
63700;BME280;49845;47.130;142.766;2023-05-14T08:04:21;100217.34;;;20.42;40.03
63700;BME280;49845;47.130;142.766;2023-05-14T08:06:52;100216.13;;;20.32;40.01
63700;BME280;49845;47.130;142.766;2023-05-14T08:09:23;100181.09;;;20.11;40.24
63700;BME280;49845;47.130;142.766;2023-05-14T08:11:55;100208.59;;;20.24;40.39
63700;BME280;49845;47.130;142.766;2023-05-14T08:14:26;100222.16;;;20.19;40.61
63700;BME280;49845;47.130;142.766;2023-05-14T08:16:56;100217.88;;;20.17;40.56
63700;BME280;49845;47.130;142.766;2023-05-14T08:19:27;100211.97;;;20.12;40.54
63700;BME280;49845;47.130;142.766;2023-05-14T08:21:57;100221.31;;;20.03;40.78
63700;BME280;49845;47.130;142.766;2023-05-14T08:24:28;100218.38;;;19.92;41.27
63700;BME280;49845;47.130;142.766;2023-05-14T08:27:00;100216.69;;;19.91;41.71
63700;BME280;49845;47.130;142.766;2023-05-14T08:29:31;100227.13;;;19.94;41.98
63700;BME280;49845;47.130;142.766;2023-05-14T08:32:01;100222.00;;;19.91;42.10
63700;BME280;49845;47.130;142.766;2023-05-14T08:34:49;100219.94;;;19.80;42.31
63700;BME280;49845;47.130;142.766;2023-05-14T08:37:20;100229.19;;;19.73;42.21
63700;BME280;49845;47.130;142.766;2023-05-14T08:39:51;100207.94;;;19.57;42.37
63700;BME280;49845;47.130;142.766;2023-05-14T08:42:24;100227.81;;;19.48;42.42
63700;BME280;49845;47.130;142.766;2023-05-14T08:44:59;100236.25;;;19.39;43.00
63700;BME280;49845;47.130;142.766;2023-05-14T08:47:30;100218.03;;;19.17;43.41
63700;BME280;49845;47.130;142.766;2023-05-14T08:50:02;100241.69;;;19.20;43.67
63700;BME280;49845;47.130;142.766;2023-05-14T08:52:34;100226.75;;;19.02;43.95
63700;BME280;49845;47.130;142.766;2023-05-14T08:55:05;100257.84;;;18.98;44.18
63700;BME280;49845;47.130;142.766;2023-05-14T08:57:38;100227.22;;;18.75;44.29
63700;BME280;49845;47.130;142.766;2023-05-14T09:00:10;100256.03;;;18.81;44.43
63700;BME280;49845;47.130;142.766;2023-05-14T09:02:42;100265.09;;;18.77;44.69
63700;BME280;49845;47.130;142.766;2023-05-14T09:05:14;100258.47;;;18.67;44.69
63700;BME280;49845;47.130;142.766;2023-05-14T09:07:46;100256.16;;;18.61;44.70
63700;BME280;49845;47.130;142.766;2023-05-14T09:10:17;100240.56;;;18.37;44.95
63700;BME280;49845;47.130;142.766;2023-05-14T09:12:50;100265.28;;;18.36;45.01
63700;BME280;49845;47.130;142.766;2023-05-14T09:15:22;100265.88;;;18.24;45.40
63700;BME280;49845;47.130;142.766;2023-05-14T09:17:54;100269.19;;;18.10;45.60
63700;BME280;49845;47.130;142.766;2023-05-14T09:20:27;100268.84;;;17.99;45.81
63700;BME280;49845;47.130;142.766;2023-05-14T09:22:58;100266.63;;;17.89;46.04
63700;BME280;49845;47.130;142.766;2023-05-14T09:25:33;100267.28;;;17.74;45.99
63700;BME280;49845;47.130;142.766;2023-05-14T09:28:15;100263.44;;;17.62;46.45
63700;BME280;49845;47.130;142.766;2023-05-14T09:30:49;100274.56;;;17.50;46.96
63700;BME280;49845;47.130;142.766;2023-05-14T09:33:25;100278.66;;;17.37;47.26
63700;BME280;49845;47.130;142.766;2023-05-14T09:35:59;100274.66;;;17.28;47.22
63700;BME280;49845;47.130;142.766;2023-05-14T09:38:31;100289.25;;;17.16;47.46
63700;BME280;49845;47.130;142.766;2023-05-14T09:41:02;100288.88;;;17.05;47.85
63700;BME280;49845;47.130;142.766;2023-05-14T09:43:34;100292.94;;;16.92;48.07
63700;BME280;49845;47.130;142.766;2023-05-14T09:46:05;100290.69;;;16.83;48.36
63700;BME280;49845;47.130;142.766;2023-05-14T09:48:36;100290.38;;;16.68;48.64
63700;BME280;49845;47.130;142.766;2023-05-14T09:51:08;100296.88;;;16.59;48.84
63700;BME280;49845;47.130;142.766;2023-05-14T09:53:42;100303.38;;;16.51;49.10
63700;BME280;49845;47.130;142.766;2023-05-14T09:56:14;100305.34;;;16.46;49.26
63700;BME280;49845;47.130;142.766;2023-05-14T09:58:49;100300.69;;;16.30;49.60
63700;BME280;49845;47.130;142.766;2023-05-14T10:01:27;100280.19;;;16.15;49.66
63700;BME280;49845;47.130;142.766;2023-05-14T10:04:06;100302.56;;;16.27;49.89
63700;BME280;49845;47.130;142.766;2023-05-14T10:06:39;100290.84;;;16.12;50.13
63700;BME280;49845;47.130;142.766;2023-05-14T10:09:16;100304.81;;;16.14;50.05
63700;BME280;49845;47.130;142.766;2023-05-14T10:11:58;100308.88;;;16.01;50.32
63700;BME280;49845;47.130;142.766;2023-05-14T10:14:35;100317.97;;;15.92;50.59
63700;BME280;49845;47.130;142.766;2023-05-14T10:17:08;100320.31;;;15.76;50.97
63700;BME280;49845;47.130;142.766;2023-05-14T10:19:51;100313.97;;;15.57;51.31
63700;BME280;49845;47.130;142.766;2023-05-14T10:22:23;100326.25;;;15.58;51.93
63700;BME280;49845;47.130;142.766;2023-05-14T10:25:02;100336.13;;;15.51;51.99
63700;BME280;49845;47.130;142.766;2023-05-14T10:27:38;100346.22;;;15.38;52.26
63700;BME280;49845;47.130;142.766;2023-05-14T10:30:14;100348.47;;;15.24;52.71
63700;BME280;49845;47.130;142.766;2023-05-14T10:33:05;100327.66;;;14.91;53.11
63700;BME280;49845;47.130;142.766;2023-05-14T10:35:54;100353.13;;;14.89;53.18
63700;BME280;49845;47.130;142.766;2023-05-14T10:38:26;100360.72;;;14.72;53.72
63700;BME280;49845;47.130;142.766;2023-05-14T10:41:00;100358.44;;;14.61;53.91
63700;BME280;49845;47.130;142.766;2023-05-14T10:43:34;100330.38;;;14.32;54.15
63700;BME280;49845;47.130;142.766;2023-05-14T10:46:15;100365.38;;;14.34;54.49
63700;BME280;49845;47.130;142.766;2023-05-14T10:48:47;100367.63;;;14.16;54.08
63700;BME280;49845;47.130;142.766;2023-05-14T10:51:19;100369.63;;;14.08;54.30
63700;BME280;49845;47.130;142.766;2023-05-14T10:53:51;100369.16;;;13.94;53.95
63700;BME280;49845;47.130;142.766;2023-05-14T10:56:22;100377.47;;;13.78;53.85
63700;BME280;49845;47.130;142.766;2023-05-14T10:59:02;100368.19;;;13.65;53.71
63700;BME280;49845;47.130;142.766;2023-05-14T11:01:39;100380.13;;;13.46;53.74
63700;BME280;49845;47.130;142.766;2023-05-14T11:04:18;100363.19;;;13.23;53.91
63700;BME280;49845;47.130;142.766;2023-05-14T11:06:50;100371.94;;;13.22;53.86
63700;BME280;49845;47.130;142.766;2023-05-14T11:09:26;100363.63;;;13.05;53.87
63700;BME280;49845;47.130;142.766;2023-05-14T11:12:05;100390.03;;;12.99;53.79
63700;BME280;49845;47.130;142.766;2023-05-14T11:14:36;100385.19;;;12.80;54.04
63700;BME280;49845;47.130;142.766;2023-05-14T11:17:16;100396.75;;;12.73;53.93
63700;BME280;49845;47.130;142.766;2023-05-14T11:19:52;100356.41;;;12.41;54.09
63700;BME280;49845;47.130;142.766;2023-05-14T11:22:23;100340.19;;;12.24;54.12
63700;BME280;49845;47.130;142.766;2023-05-14T11:24:54;100403.22;;;12.57;54.28
63700;BME280;49845;47.130;142.766;2023-05-14T11:27:25;100408.53;;;12.54;54.49
63700;BME280;49845;47.130;142.766;2023-05-14T11:29:57;100399.09;;;12.46;54.22
63700;BME280;49845;47.130;142.766;2023-05-14T11:32:34;100398.31;;;12.41;54.40
63700;BME280;49845;47.130;142.766;2023-05-14T11:35:05;100409.03;;;12.30;54.66
63700;BME280;49845;47.130;142.766;2023-05-14T11:37:37;100408.38;;;12.19;55.04
63700;BME280;49845;47.130;142.766;2023-05-14T11:40:14;100394.78;;;12.00;55.70
63700;BME280;49845;47.130;142.766;2023-05-14T11:42:50;100397.66;;;11.88;56.16
63700;BME280;49845;47.130;142.766;2023-05-14T11:45:31;100399.59;;;11.78;56.51
63700;BME280;49845;47.130;142.766;2023-05-14T11:48:13;100410.16;;;11.72;56.91
63700;BME280;49845;47.130;142.766;2023-05-14T11:50:45;100410.38;;;11.61;57.11
63700;BME280;49845;47.130;142.766;2023-05-14T11:53:28;100401.94;;;11.44;57.27
63700;BME280;49845;47.130;142.766;2023-05-14T11:55:59;100402.16;;;11.32;58.25
63700;BME280;49845;47.130;142.766;2023-05-14T11:58:31;100412.63;;;11.32;58.38
63700;BME280;49845;47.130;142.766;2023-05-14T12:01:02;100409.31;;;11.20;58.74
63700;BME280;49845;47.130;142.766;2023-05-14T12:03:37;100414.75;;;11.08;59.46
63700;BME280;49845;47.130;142.766;2023-05-14T12:06:14;100404.59;;;10.90;59.71
63700;BME280;49845;47.130;142.766;2023-05-14T12:08:50;100390.91;;;10.74;59.96
63700;BME280;49845;47.130;142.766;2023-05-14T12:11:20;100399.59;;;10.74;60.55
63700;BME280;49845;47.130;142.766;2023-05-14T12:13:52;100411.75;;;10.75;60.47
63700;BME280;49845;47.130;142.766;2023-05-14T12:16:29;100426.66;;;10.70;60.75
63700;BME280;49845;47.130;142.766;2023-05-14T12:19:11;100415.53;;;10.56;60.82
63700;BME280;49845;47.130;142.766;2023-05-14T12:21:44;100415.66;;;10.48;61.09
63700;BME280;49845;47.130;142.766;2023-05-14T12:24:16;100412.28;;;10.39;61.69
63700;BME280;49845;47.130;142.766;2023-05-14T12:26:48;100408.88;;;10.33;61.75
63700;BME280;49845;47.130;142.766;2023-05-14T12:29:22;100417.53;;;10.37;61.60
63700;BME280;49845;47.130;142.766;2023-05-14T12:32:01;100411.50;;;10.30;62.15
63700;BME280;49845;47.130;142.766;2023-05-14T12:34:39;100418.50;;;10.25;62.32
63700;BME280;49845;47.130;142.766;2023-05-14T12:37:10;100391.88;;;9.99;62.71
63700;BME280;49845;47.130;142.766;2023-05-14T12:39:40;100421.34;;;10.07;63.25
63700;BME280;49845;47.130;142.766;2023-05-14T12:42:11;100425.81;;;9.97;63.70
63700;BME280;49845;47.130;142.766;2023-05-14T12:44:42;100428.56;;;9.86;63.86
63700;BME280;49845;47.130;142.766;2023-05-14T12:47:13;100424.28;;;9.79;64.54
63700;BME280;49845;47.130;142.766;2023-05-14T12:49:46;100420.03;;;9.69;65.18
63700;BME280;49845;47.130;142.766;2023-05-14T12:52:17;100420.03;;;9.66;65.09
63700;BME280;49845;47.130;142.766;2023-05-14T12:55:05;100424.50;;;9.55;65.90
63700;BME280;49845;47.130;142.766;2023-05-14T12:57:40;100425.41;;;9.54;65.94